createdAt,value
2023-03-02T00:00:45.256Z,34.87
2023-03-02T00:05:41.052Z,42.60
2023-03-02T00:10:33.620Z,36.73
2023-03-02T00:15:26.278Z,35.90
2023-03-02T00:20:18.897Z,40.40
2023-03-02T00:25:13.430Z,38.40
2023-03-02T00:30:06.584Z,40.53
2023-03-02T00:34:59.283Z,32.47
2023-03-02T00:39:52.432Z,40.93
2023-03-02T00:44:46.314Z,33.90
2023-03-02T00:49:38.935Z,42.37
2023-03-02T00:54:31.567Z,39.50
2023-03-02T00:59:27.564Z,39.00
2023-03-02T01:04:46.289Z,47.07
2023-03-02T01:09:39.190Z,45.53
2023-03-02T01:14:31.861Z,44.63
2023-03-02T01:19:24.524Z,44.03
2023-03-02T01:24:18.835Z,40.73
2023-03-02T01:29:11.636Z,43.50
2023-03-02T01:34:04.267Z,47.87
2023-03-02T01:38:56.951Z,50.10
2023-03-02T01:43:50.971Z,44.47
2023-03-02T01:48:45.761Z,44.83
2023-03-02T01:53:46.668Z,40.37
2023-03-02T01:58:39.398Z,42.37
2023-03-02T02:03:33.330Z,37.27
2023-03-02T02:08:26.374Z,40.13
2023-03-02T02:13:19.013Z,43.53
2023-03-02T02:18:11.776Z,43.40
2023-03-02T02:23:10.474Z,39.30
2023-03-02T02:28:08.472Z,47.40
2023-03-02T02:33:01.633Z,45.30
2023-03-02T02:37:56.441Z,42.90
2023-03-02T02:42:50.652Z,45.83
2023-03-02T02:47:44.651Z,48.33
2023-03-02T02:52:37.756Z,42.67
2023-03-02T02:57:30.968Z,47.20
2023-03-02T03:02:24.821Z,46.63
2023-03-02T03:07:23.277Z,46.73
2023-03-02T03:12:19.933Z,46.13
2023-03-02T03:17:13.828Z,55.33
2023-03-02T03:22:17.129Z,49.40
2023-03-02T03:27:14.879Z,48.30
2023-03-02T03:32:25.874Z,46.27
2023-03-02T03:37:24.231Z,51.57
2023-03-02T03:42:22.651Z,47.20
2023-03-02T03:47:16.220Z,52.97
2023-03-02T03:52:12.158Z,44.33
2023-03-02T03:57:06.286Z,44.97
2023-03-02T04:02:01.552Z,48.60
2023-03-02T04:07:02.059Z,45.20
2023-03-02T04:11:59.379Z,54.00
2023-03-02T04:16:54.618Z,58.17
2023-03-02T04:21:51.352Z,49.73
2023-03-02T04:26:49.145Z,47.50
2023-03-02T04:31:48.301Z,48.40
2023-03-02T04:36:45.165Z,55.77
2023-03-02T04:41:44.278Z,54.43
2023-03-02T04:46:37.104Z,51.50
2023-03-02T04:51:30.647Z,49.63
2023-03-02T04:56:26.819Z,56.63
2023-03-02T05:01:22.170Z,58.00
2023-03-02T05:06:15.437Z,51.37
2023-03-02T05:11:22.962Z,65.90
2023-03-02T05:16:23.083Z,53.97
2023-03-02T05:21:16.404Z,62.83
2023-03-02T05:26:09.077Z,65.27
2023-03-02T05:31:02.451Z,59.47
2023-03-02T05:35:56.593Z,60.47
2023-03-02T05:40:49.440Z,57.63
2023-03-02T05:45:42.127Z,59.43
2023-03-02T05:50:34.853Z,61.07
2023-03-02T05:55:29.206Z,63.03
2023-03-02T06:00:22.118Z,58.30
2023-03-02T06:05:15.650Z,57.57
2023-03-02T06:10:10.225Z,66.10
2023-03-02T06:15:04.628Z,61.07
2023-03-02T06:19:57.157Z,72.20
2023-03-02T06:24:49.827Z,67.37
2023-03-02T06:29:42.370Z,62.80
2023-03-02T06:34:36.352Z,62.37
2023-03-02T06:39:30.090Z,58.70
2023-03-02T06:44:22.703Z,55.90
2023-03-02T06:49:15.150Z,58.97
2023-03-02T06:54:08.959Z,61.83
2023-03-02T06:59:01.455Z,57.23
2023-03-02T07:03:54.019Z,67.23
2023-03-02T07:08:46.746Z,68.33
2023-03-02T07:13:41.053Z,65.80
2023-03-02T07:18:33.599Z,67.27
2023-03-02T07:23:26.069Z,79.50
2023-03-02T07:28:18.640Z,82.77
2023-03-02T07:33:12.497Z,63.50
2023-03-02T07:38:04.976Z,58.80
2023-03-02T07:42:57.515Z,50.90
2023-03-02T07:47:49.961Z,52.40
2023-03-02T07:52:43.777Z,54.13
2023-03-02T07:57:36.664Z,51.47
2023-03-02T08:02:29.317Z,48.50
2023-03-02T08:07:21.847Z,54.57
2023-03-02T08:12:15.672Z,55.10
2023-03-02T08:17:08.345Z,53.13
2023-03-02T08:22:01.915Z,56.33
2023-03-02T08:26:54.536Z,56.97
2023-03-02T08:31:48.519Z,54.37
2023-03-02T08:36:43.192Z,49.40
2023-03-02T08:41:35.994Z,52.67
2023-03-02T08:46:28.617Z,52.73
2023-03-02T08:51:23.477Z,51.87
2023-03-02T08:56:16.943Z,55.17
2023-03-02T09:01:14.166Z,51.60
2023-03-02T09:06:07.043Z,52.10
2023-03-02T09:11:01.041Z,53.03
2023-03-02T09:15:53.611Z,51.07
2023-03-02T09:20:46.224Z,53.53
2023-03-02T09:25:38.784Z,57.00
2023-03-02T09:30:32.904Z,58.17
2023-03-02T09:35:25.540Z,56.40
2023-03-02T09:40:20.138Z,58.30
2023-03-02T09:45:22.845Z,57.47
2023-03-02T09:50:29.616Z,61.87
2023-03-02T09:55:24.551Z,57.77
2023-03-02T10:00:20.577Z,55.37
2023-03-02T10:05:17.352Z,55.80
2023-03-02T10:10:18.872Z,57.20
2023-03-02T10:15:13.603Z,54.23
2023-03-02T10:20:10.001Z,54.03
2023-03-02T10:25:07.774Z,54.30
2023-03-02T10:30:06.340Z,61.37
2023-03-02T10:35:01.466Z,59.03
2023-03-02T10:39:54.112Z,53.20
2023-03-02T10:44:47.974Z,59.13
2023-03-02T10:49:44.036Z,60.43
2023-03-02T10:54:36.869Z,58.10
2023-03-02T10:59:39.942Z,54.13
2023-03-02T11:04:32.857Z,54.37
2023-03-02T11:14:24.315Z,54.47
2023-03-02T11:19:18.632Z,54.67
2023-03-02T11:24:14.007Z,50.70
2023-03-02T11:29:12.991Z,52.07
2023-03-02T11:34:23.558Z,50.97
2023-03-02T11:39:18.712Z,52.17
2023-03-02T11:44:16.247Z,51.20
2023-03-02T11:49:14.411Z,54.20
2023-03-02T11:54:13.685Z,47.83
2023-03-02T11:59:11.407Z,47.93
2023-03-02T12:04:09.676Z,44.57
2023-03-02T12:09:10.964Z,41.70
2023-03-02T12:14:04.833Z,45.23
2023-03-02T12:18:57.435Z,45.00
2023-03-02T12:24:22.908Z,42.70
2023-03-02T12:29:23.747Z,42.10
2023-03-02T12:34:25.977Z,45.50
2023-03-02T12:39:25.155Z,46.13
2023-03-02T12:44:24.292Z,46.40
2023-03-02T12:49:28.351Z,41.93
2023-03-02T12:54:23.281Z,44.63
2023-03-02T12:59:23.421Z,42.67
2023-03-02T13:04:23.345Z,44.57
2023-03-02T13:09:16.408Z,41.67
2023-03-02T13:14:19.814Z,44.27
2023-03-02T13:19:16.480Z,39.00
2023-03-02T13:24:21.619Z,40.17
2023-03-02T13:29:19.206Z,42.03
2023-03-02T13:34:20.859Z,41.77
2023-03-02T13:39:19.520Z,41.20
2023-03-02T13:44:13.696Z,42.07
2023-03-02T13:49:11.325Z,45.83
2023-03-02T13:54:07.164Z,42.73
2023-03-02T13:59:00.161Z,48.20
2023-03-02T14:03:52.716Z,43.33
2023-03-02T14:08:45.695Z,45.33
2023-03-02T14:13:41.502Z,41.73
2023-03-02T14:18:37.514Z,42.97
2023-03-02T14:23:30.264Z,45.87
2023-03-02T14:28:25.276Z,44.43
2023-03-02T14:33:19.370Z,40.27
2023-03-02T14:38:12.387Z,46.47
2023-03-02T14:43:05.026Z,39.87
2023-03-02T14:47:57.683Z,41.53
2023-03-02T14:52:55.019Z,38.93
2023-03-02T14:57:50.049Z,39.63
2023-03-02T15:02:42.788Z,42.40
2023-03-02T15:07:37.094Z,39.20
2023-03-02T15:12:31.046Z,39.57
2023-03-02T15:17:24.255Z,41.07
2023-03-02T15:22:18.934Z,44.40
2023-03-02T15:27:13.889Z,48.53
2023-03-02T15:32:08.051Z,42.50
2023-03-02T15:37:00.625Z,43.87
2023-03-02T15:41:53.802Z,42.03
2023-03-02T15:46:46.571Z,48.53
2023-03-02T15:51:40.487Z,42.97
2023-03-02T15:56:43.774Z,42.93
2023-03-02T16:01:36.939Z,49.53
2023-03-02T16:06:30.675Z,48.87
2023-03-02T16:11:24.530Z,52.03
2023-03-02T16:16:17.180Z,69.23
2023-03-02T16:21:14.052Z,52.50
2023-03-02T16:26:07.843Z,50.37
2023-03-02T16:31:05.392Z,54.33
2023-03-02T16:35:57.952Z,53.67
2023-03-02T16:40:52.515Z,50.37
2023-03-02T16:45:45.279Z,48.10
2023-03-02T16:50:39.847Z,53.23
2023-03-02T16:55:32.447Z,53.40
2023-03-02T17:00:25.476Z,89.40
2023-03-02T17:05:19.595Z,57.13
2023-03-02T17:10:15.814Z,71.27
2023-03-02T17:15:09.227Z,64.40
2023-03-02T17:20:01.794Z,66.20
2023-03-02T17:24:54.355Z,67.40
2023-03-02T17:29:48.414Z,65.17
2023-03-02T17:34:43.166Z,67.20
2023-03-02T17:39:36.212Z,82.17
2023-03-02T17:44:28.954Z,66.27
2023-03-02T17:49:22.921Z,63.20
2023-03-02T17:54:15.630Z,65.97
2023-03-02T17:59:08.210Z,64.37
2023-03-02T18:04:00.965Z,57.90
2023-03-02T18:08:54.988Z,59.40
2023-03-02T18:13:47.956Z,62.43
2023-03-02T18:18:40.982Z,68.67
2023-03-02T18:23:33.988Z,64.43
2023-03-02T18:28:28.032Z,63.53
2023-03-02T18:33:20.700Z,68.13
2023-03-02T18:38:13.378Z,63.90
2023-03-02T18:43:06.004Z,72.13
2023-03-02T18:48:00.452Z,76.03
2023-03-02T18:52:53.320Z,78.63
2023-03-02T18:57:45.949Z,76.67
2023-03-02T19:02:38.606Z,71.17
2023-03-02T19:07:32.611Z,68.77
2023-03-02T19:12:25.215Z,66.83
2023-03-02T19:17:17.789Z,68.50
2023-03-02T19:22:10.460Z,69.93
2023-03-02T19:27:04.451Z,49.23
2023-03-02T19:31:58.150Z,68.53
2023-03-02T19:36:50.867Z,68.70
2023-03-02T19:41:43.498Z,80.37
2023-03-02T19:46:37.496Z,80.10
2023-03-02T19:51:31.249Z,88.03
2023-03-02T19:56:26.820Z,89.47
2023-03-02T20:01:21.630Z,89.27
2023-03-02T20:06:15.954Z,77.57
2023-03-02T20:11:17.227Z,79.17
2023-03-02T20:16:09.961Z,60.23
2023-03-02T20:21:02.559Z,65.00
2023-03-02T20:25:56.482Z,60.03
2023-03-02T20:30:53.839Z,64.60
2023-03-02T20:35:47.373Z,64.37
2023-03-02T20:40:40.685Z,55.57
2023-03-02T20:45:34.652Z,58.23
2023-03-02T20:50:31.122Z,60.93
2023-03-02T20:55:23.759Z,56.70
2023-03-02T21:00:20.676Z,53.60
2023-03-02T21:05:14.756Z,62.67
2023-03-02T21:10:08.466Z,67.23
2023-03-02T21:15:02.350Z,67.10
2023-03-02T21:19:55.374Z,86.93
2023-03-02T21:24:49.425Z,75.10
2023-03-02T21:29:42.350Z,73.67
2023-03-02T21:34:37.206Z,66.77
2023-03-02T21:39:31.113Z,64.10
2023-03-02T21:44:25.758Z,62.40
2023-03-02T21:49:19.802Z,62.63
2023-03-02T21:54:12.591Z,62.93
2023-03-02T21:59:05.522Z,57.60
2023-03-02T22:03:59.617Z,70.67
2023-03-02T22:08:52.702Z,64.37
2023-03-02T22:13:45.378Z,65.73
2023-03-02T22:18:38.045Z,70.47
2023-03-02T22:23:32.415Z,64.00
2023-03-02T22:28:26.578Z,72.40
2023-03-02T22:33:20.648Z,67.70
2023-03-02T22:38:14.480Z,63.53
2023-03-02T22:43:15.063Z,64.63
2023-03-02T22:48:11.906Z,68.80
2023-03-02T22:53:08.487Z,60.50
2023-03-02T22:58:01.899Z,62.63
2023-03-02T23:02:57.492Z,49.60
2023-03-02T23:07:50.108Z,55.20
2023-03-02T23:12:42.910Z,56.37
2023-03-02T23:17:36.937Z,60.67
2023-03-02T23:22:31.149Z,75.37
2023-03-02T23:27:24.770Z,61.90
2023-03-02T23:32:19.397Z,64.17
2023-03-02T23:37:12.283Z,56.47
2023-03-02T23:42:06.476Z,60.50
2023-03-02T23:46:59.098Z,58.47
2023-03-02T23:51:51.764Z,62.07
2023-03-02T23:56:44.359Z,70.57
